sensor_id;sensor_type;location;lat;lon;timestamp;P1;durP1;ratioP1;P2;durP2;ratioP2
79066;SDS011;68470;50.224;14.348;2023-03-11T00:01:05;2.53;;;1.52;;
79066;SDS011;68470;50.224;14.348;2023-03-11T00:03:31;1.73;;;1.40;;
79066;SDS011;68470;50.224;14.348;2023-03-11T00:05:59;1.55;;;1.15;;
79066;SDS011;68470;50.224;14.348;2023-03-11T00:08:28;1.98;;;1.50;;
79066;SDS011;68470;50.224;14.348;2023-03-11T00:10:55;1.98;;;1.77;;
79066;SDS011;68470;50.224;14.348;2023-03-11T00:13:26;1.20;;;1.10;;
79066;SDS011;68470;50.224;14.348;2023-03-11T00:15:53;1.13;;;0.73;;
79066;SDS011;68470;50.224;14.348;2023-03-11T00:18:24;2.25;;;1.45;;
79066;SDS011;68470;50.224;14.348;2023-03-11T00:20:53;1.30;;;0.90;;
79066;SDS011;68470;50.224;14.348;2023-03-11T00:23:20;0.90;;;0.68;;
79066;SDS011;68470;50.224;14.348;2023-03-11T00:25:46;2.28;;;1.85;;
79066;SDS011;68470;50.224;14.348;2023-03-11T00:28:13;2.63;;;2.20;;
79066;SDS011;68470;50.224;14.348;2023-03-11T00:30:40;2.42;;;1.80;;
79066;SDS011;68470;50.224;14.348;2023-03-11T00:33:07;1.90;;;1.40;;
79066;SDS011;68470;50.224;14.348;2023-03-11T00:35:35;2.58;;;2.38;;
79066;SDS011;68470;50.224;14.348;2023-03-11T00:38:03;3.55;;;2.65;;
79066;SDS011;68470;50.224;14.348;2023-03-11T00:40:32;2.47;;;1.80;;
79066;SDS011;68470;50.224;14.348;2023-03-11T00:42:59;2.45;;;1.70;;
79066;SDS011;68470;50.224;14.348;2023-03-11T00:45:26;2.45;;;1.95;;
79066;SDS011;68470;50.224;14.348;2023-03-11T00:47:53;3.45;;;2.53;;
79066;SDS011;68470;50.224;14.348;2023-03-11T00:50:23;5.35;;;2.20;;
79066;SDS011;68470;50.224;14.348;2023-03-11T00:52:52;2.30;;;1.80;;
79066;SDS011;68470;50.224;14.348;2023-03-11T00:55:20;2.92;;;1.70;;
79066;SDS011;68470;50.224;14.348;2023-03-11T00:57:54;2.95;;;2.25;;
79066;SDS011;68470;50.224;14.348;2023-03-11T01:00:21;2.58;;;1.92;;
79066;SDS011;68470;50.224;14.348;2023-03-11T01:02:50;3.05;;;2.38;;
79066;SDS011;68470;50.224;14.348;2023-03-11T01:05:18;3.15;;;2.08;;
79066;SDS011;68470;50.224;14.348;2023-03-11T01:07:45;2.60;;;1.90;;
79066;SDS011;68470;50.224;14.348;2023-03-11T01:10:11;2.30;;;1.83;;
79066;SDS011;68470;50.224;14.348;2023-03-11T01:12:37;2.70;;;2.03;;
79066;SDS011;68470;50.224;14.348;2023-03-11T01:15:03;2.60;;;2.38;;
79066;SDS011;68470;50.224;14.348;2023-03-11T01:17:29;1.92;;;1.58;;
79066;SDS011;68470;50.224;14.348;2023-03-11T01:19:55;2.65;;;1.77;;
79066;SDS011;68470;50.224;14.348;2023-03-11T01:22:21;3.35;;;1.70;;
79066;SDS011;68470;50.224;14.348;2023-03-11T01:24:47;2.15;;;1.35;;
79066;SDS011;68470;50.224;14.348;2023-03-11T01:27:13;2.78;;;1.77;;
79066;SDS011;68470;50.224;14.348;2023-03-11T01:29:39;2.58;;;1.70;;
79066;SDS011;68470;50.224;14.348;2023-03-11T01:32:05;3.05;;;2.70;;
79066;SDS011;68470;50.224;14.348;2023-03-11T01:34:31;2.17;;;1.30;;
79066;SDS011;68470;50.224;14.348;2023-03-11T01:37:00;1.75;;;1.63;;
79066;SDS011;68470;50.224;14.348;2023-03-11T01:39:29;2.75;;;2.10;;
79066;SDS011;68470;50.224;14.348;2023-03-11T01:41:55;1.70;;;1.30;;
79066;SDS011;68470;50.224;14.348;2023-03-11T01:44:21;2.25;;;1.70;;
79066;SDS011;68470;50.224;14.348;2023-03-11T01:49:19;2.13;;;1.27;;
79066;SDS011;68470;50.224;14.348;2023-03-11T01:51:46;1.75;;;1.50;;
79066;SDS011;68470;50.224;14.348;2023-03-11T01:54:20;3.10;;;1.77;;
79066;SDS011;68470;50.224;14.348;2023-03-11T01:56:47;1.65;;;1.38;;
79066;SDS011;68470;50.224;14.348;2023-03-11T01:59:16;1.58;;;1.20;;
79066;SDS011;68470;50.224;14.348;2023-03-11T02:04:50;2.30;;;1.63;;
79066;SDS011;68470;50.224;14.348;2023-03-11T02:07:17;1.65;;;1.50;;
79066;SDS011;68470;50.224;14.348;2023-03-11T02:09:43;1.98;;;1.50;;
79066;SDS011;68470;50.224;14.348;2023-03-11T02:12:10;2.20;;;1.63;;
79066;SDS011;68470;50.224;14.348;2023-03-11T02:14:41;3.00;;;1.70;;
79066;SDS011;68470;50.224;14.348;2023-03-11T02:17:09;1.10;;;1.00;;
79066;SDS011;68470;50.224;14.348;2023-03-11T02:19:51;1.88;;;1.50;;
79066;SDS011;68470;50.224;14.348;2023-03-11T02:22:36;2.17;;;1.55;;
79066;SDS011;68470;50.224;14.348;2023-03-11T02:25:10;2.10;;;1.80;;
79066;SDS011;68470;50.224;14.348;2023-03-11T02:27:47;1.65;;;1.30;;
79066;SDS011;68470;50.224;14.348;2023-03-11T02:30:17;1.52;;;1.17;;
79066;SDS011;68470;50.224;14.348;2023-03-11T02:32:45;1.77;;;0.70;;
79066;SDS011;68470;50.224;14.348;2023-03-11T02:35:13;1.23;;;0.75;;
79066;SDS011;68470;50.224;14.348;2023-03-11T02:37:46;1.23;;;0.88;;
79066;SDS011;68470;50.224;14.348;2023-03-11T02:42:42;1.50;;;1.15;;
79066;SDS011;68470;50.224;14.348;2023-03-11T02:45:10;1.52;;;0.93;;
79066;SDS011;68470;50.224;14.348;2023-03-11T02:47:38;1.38;;;1.00;;
79066;SDS011;68470;50.224;14.348;2023-03-11T02:50:06;2.08;;;1.50;;
79066;SDS011;68470;50.224;14.348;2023-03-11T02:52:35;2.75;;;1.85;;
79066;SDS011;68470;50.224;14.348;2023-03-11T02:55:01;2.08;;;1.27;;
79066;SDS011;68470;50.224;14.348;2023-03-11T02:57:27;2.40;;;1.38;;
79066;SDS011;68470;50.224;14.348;2023-03-11T02:59:53;2.35;;;1.70;;
79066;SDS011;68470;50.224;14.348;2023-03-11T03:02:19;2.22;;;2.08;;
79066;SDS011;68470;50.224;14.348;2023-03-11T03:04:45;1.70;;;1.60;;
79066;SDS011;68470;50.224;14.348;2023-03-11T03:07:11;1.63;;;1.45;;
79066;SDS011;68470;50.224;14.348;2023-03-11T03:09:37;1.35;;;1.00;;
79066;SDS011;68470;50.224;14.348;2023-03-11T03:12:03;1.95;;;1.23;;
79066;SDS011;68470;50.224;14.348;2023-03-11T03:14:30;2.15;;;1.52;;
79066;SDS011;68470;50.224;14.348;2023-03-11T03:16:55;1.88;;;1.00;;
79066;SDS011;68470;50.224;14.348;2023-03-11T03:19:22;1.70;;;1.25;;
79066;SDS011;68470;50.224;14.348;2023-03-11T03:21:47;1.20;;;0.80;;
79066;SDS011;68470;50.224;14.348;2023-03-11T03:24:14;1.33;;;0.98;;
79066;SDS011;68470;50.224;14.348;2023-03-11T03:26:40;1.05;;;0.70;;
79066;SDS011;68470;50.224;14.348;2023-03-11T03:29:06;1.60;;;0.90;;
79066;SDS011;68470;50.224;14.348;2023-03-11T03:31:32;1.60;;;1.48;;
79066;SDS011;68470;50.224;14.348;2023-03-11T03:33:58;1.83;;;1.27;;
79066;SDS011;68470;50.224;14.348;2023-03-11T03:36:23;1.02;;;0.70;;
79066;SDS011;68470;50.224;14.348;2023-03-11T03:38:53;0.85;;;0.70;;
79066;SDS011;68470;50.224;14.348;2023-03-11T03:41:20;1.70;;;1.02;;
79066;SDS011;68470;50.224;14.348;2023-03-11T03:43:46;2.00;;;1.75;;
79066;SDS011;68470;50.224;14.348;2023-03-11T03:46:12;1.17;;;0.80;;
79066;SDS011;68470;50.224;14.348;2023-03-11T03:48:38;1.38;;;0.85;;
79066;SDS011;68470;50.224;14.348;2023-03-11T03:51:05;2.08;;;1.50;;
79066;SDS011;68470;50.224;14.348;2023-03-11T03:53:33;1.17;;;0.98;;
79066;SDS011;68470;50.224;14.348;2023-03-11T03:56:10;1.85;;;1.00;;
79066;SDS011;68470;50.224;14.348;2023-03-11T03:58:37;1.45;;;1.35;;
79066;SDS011;68470;50.224;14.348;2023-03-11T04:01:04;1.65;;;0.95;;
79066;SDS011;68470;50.224;14.348;2023-03-11T04:03:31;1.38;;;1.25;;
79066;SDS011;68470;50.224;14.348;2023-03-11T04:06:08;1.67;;;1.05;;
79066;SDS011;68470;50.224;14.348;2023-03-11T04:08:35;1.90;;;1.70;;
79066;SDS011;68470;50.224;14.348;2023-03-11T04:11:02;1.83;;;1.25;;
79066;SDS011;68470;50.224;14.348;2023-03-11T04:13:28;0.90;;;0.60;;
79066;SDS011;68470;50.224;14.348;2023-03-11T04:15:54;1.23;;;0.88;;
79066;SDS011;68470;50.224;14.348;2023-03-11T04:18:21;1.08;;;0.93;;
79066;SDS011;68470;50.224;14.348;2023-03-11T04:20:47;1.20;;;0.95;;
79066;SDS011;68470;50.224;14.348;2023-03-11T04:23:13;1.50;;;1.30;;
79066;SDS011;68470;50.224;14.348;2023-03-11T04:25:39;1.38;;;1.17;;
79066;SDS011;68470;50.224;14.348;2023-03-11T04:28:05;2.22;;;2.03;;
79066;SDS011;68470;50.224;14.348;2023-03-11T04:30:31;2.03;;;1.20;;
79066;SDS011;68470;50.224;14.348;2023-03-11T04:32:57;1.67;;;1.42;;
79066;SDS011;68470;50.224;14.348;2023-03-11T04:35:23;2.95;;;2.33;;
79066;SDS011;68470;50.224;14.348;2023-03-11T04:37:49;2.03;;;1.30;;
79066;SDS011;68470;50.224;14.348;2023-03-11T04:40:15;2.03;;;1.33;;
79066;SDS011;68470;50.224;14.348;2023-03-11T04:42:41;1.20;;;0.90;;
79066;SDS011;68470;50.224;14.348;2023-03-11T04:45:07;1.27;;;1.10;;
79066;SDS011;68470;50.224;14.348;2023-03-11T04:47:34;2.13;;;1.55;;
79066;SDS011;68470;50.224;14.348;2023-03-11T04:49:59;3.40;;;1.73;;
79066;SDS011;68470;50.224;14.348;2023-03-11T04:52:26;1.75;;;0.98;;
79066;SDS011;68470;50.224;14.348;2023-03-11T04:54:51;2.25;;;2.05;;
79066;SDS011;68470;50.224;14.348;2023-03-11T04:57:17;1.80;;;1.45;;
79066;SDS011;68470;50.224;14.348;2023-03-11T04:59:43;1.85;;;1.50;;
79066;SDS011;68470;50.224;14.348;2023-03-11T05:02:09;2.63;;;1.00;;
79066;SDS011;68470;50.224;14.348;2023-03-11T05:04:35;3.20;;;1.95;;
79066;SDS011;68470;50.224;14.348;2023-03-11T05:07:01;3.25;;;1.48;;
79066;SDS011;68470;50.224;14.348;2023-03-11T05:09:27;6.90;;;2.58;;
79066;SDS011;68470;50.224;14.348;2023-03-11T05:11:53;2.22;;;1.70;;
79066;SDS011;68470;50.224;14.348;2023-03-11T05:14:19;8.13;;;3.20;;
79066;SDS011;68470;50.224;14.348;2023-03-11T05:16:45;3.17;;;2.17;;
79066;SDS011;68470;50.224;14.348;2023-03-11T05:19:11;1.98;;;1.60;;
79066;SDS011;68470;50.224;14.348;2023-03-11T05:21:55;5.07;;;1.50;;
79066;SDS011;68470;50.224;14.348;2023-03-11T05:24:21;3.75;;;2.75;;
79066;SDS011;68470;50.224;14.348;2023-03-11T05:26:50;6.82;;;3.05;;
79066;SDS011;68470;50.224;14.348;2023-03-11T05:29:16;2.53;;;1.17;;
79066;SDS011;68470;50.224;14.348;2023-03-11T05:31:42;1.77;;;1.30;;
79066;SDS011;68470;50.224;14.348;2023-03-11T05:34:08;1.70;;;1.60;;
79066;SDS011;68470;50.224;14.348;2023-03-11T05:36:34;2.28;;;1.70;;
79066;SDS011;68470;50.224;14.348;2023-03-11T05:39:00;1.45;;;0.90;;
79066;SDS011;68470;50.224;14.348;2023-03-11T05:41:26;2.15;;;1.33;;
79066;SDS011;68470;50.224;14.348;2023-03-11T05:43:51;1.30;;;1.17;;
79066;SDS011;68470;50.224;14.348;2023-03-11T05:46:17;1.85;;;1.45;;
79066;SDS011;68470;50.224;14.348;2023-03-11T05:48:45;1.48;;;1.05;;
79066;SDS011;68470;50.224;14.348;2023-03-11T05:51:11;0.73;;;0.63;;
79066;SDS011;68470;50.224;14.348;2023-03-11T05:53:37;2.45;;;2.25;;
79066;SDS011;68470;50.224;14.348;2023-03-11T05:56:03;1.58;;;1.48;;
79066;SDS011;68470;50.224;14.348;2023-03-11T05:58:30;1.77;;;1.67;;
79066;SDS011;68470;50.224;14.348;2023-03-11T06:00:56;1.13;;;1.02;;
79066;SDS011;68470;50.224;14.348;2023-03-11T06:03:24;1.77;;;1.30;;
79066;SDS011;68470;50.224;14.348;2023-03-11T06:05:50;0.80;;;0.77;;
79066;SDS011;68470;50.224;14.348;2023-03-11T06:08:17;1.45;;;1.35;;
79066;SDS011;68470;50.224;14.348;2023-03-11T06:10:44;1.38;;;0.82;;
79066;SDS011;68470;50.224;14.348;2023-03-11T06:13:10;1.20;;;0.93;;
79066;SDS011;68470;50.224;14.348;2023-03-11T06:15:36;2.05;;;1.30;;
79066;SDS011;68470;50.224;14.348;2023-03-11T06:18:02;2.05;;;1.45;;
79066;SDS011;68470;50.224;14.348;2023-03-11T06:20:29;2.25;;;1.27;;
79066;SDS011;68470;50.224;14.348;2023-03-11T06:22:55;1.30;;;0.90;;
79066;SDS011;68470;50.224;14.348;2023-03-11T06:25:21;1.92;;;1.50;;
79066;SDS011;68470;50.224;14.348;2023-03-11T06:27:50;2.40;;;1.60;;
79066;SDS011;68470;50.224;14.348;2023-03-11T06:30:18;2.75;;;1.17;;
79066;SDS011;68470;50.224;14.348;2023-03-11T06:32:45;2.50;;;2.13;;
79066;SDS011;68470;50.224;14.348;2023-03-11T06:35:12;1.00;;;0.90;;
79066;SDS011;68470;50.224;14.348;2023-03-11T06:37:38;3.05;;;2.10;;
79066;SDS011;68470;50.224;14.348;2023-03-11T06:40:05;3.30;;;1.42;;
79066;SDS011;68470;50.224;14.348;2023-03-11T06:45:00;1.83;;;1.73;;
79066;SDS011;68470;50.224;14.348;2023-03-11T06:47:26;3.30;;;2.25;;
79066;SDS011;68470;50.224;14.348;2023-03-11T06:49:52;1.02;;;0.73;;
79066;SDS011;68470;50.224;14.348;2023-03-11T06:52:18;1.90;;;1.40;;
79066;SDS011;68470;50.224;14.348;2023-03-11T06:54:45;2.25;;;1.20;;
79066;SDS011;68470;50.224;14.348;2023-03-11T06:57:10;0.98;;;0.82;;
79066;SDS011;68470;50.224;14.348;2023-03-11T06:59:37;3.45;;;1.73;;
79066;SDS011;68470;50.224;14.348;2023-03-11T07:02:03;2.72;;;1.30;;
79066;SDS011;68470;50.224;14.348;2023-03-11T07:04:31;1.70;;;0.93;;
79066;SDS011;68470;50.224;14.348;2023-03-11T07:06:57;1.55;;;1.38;;
79066;SDS011;68470;50.224;14.348;2023-03-11T07:09:24;2.22;;;1.27;;
79066;SDS011;68470;50.224;14.348;2023-03-11T07:11:50;1.90;;;1.77;;
79066;SDS011;68470;50.224;14.348;2023-03-11T07:14:17;2.33;;;2.00;;
79066;SDS011;68470;50.224;14.348;2023-03-11T07:16:43;2.58;;;2.00;;
79066;SDS011;68470;50.224;14.348;2023-03-11T07:19:10;2.25;;;1.83;;
79066;SDS011;68470;50.224;14.348;2023-03-11T07:21:37;1.98;;;1.45;;
79066;SDS011;68470;50.224;14.348;2023-03-11T07:24:03;1.73;;;1.23;;
79066;SDS011;68470;50.224;14.348;2023-03-11T07:26:30;6.18;;;2.53;;
79066;SDS011;68470;50.224;14.348;2023-03-11T07:28:57;3.40;;;2.65;;
79066;SDS011;68470;50.224;14.348;2023-03-11T07:31:25;3.78;;;1.98;;
79066;SDS011;68470;50.224;14.348;2023-03-11T07:36:19;3.35;;;2.10;;
79066;SDS011;68470;50.224;14.348;2023-03-11T07:38:47;3.67;;;2.35;;
79066;SDS011;68470;50.224;14.348;2023-03-11T07:41:14;4.03;;;2.05;;
79066;SDS011;68470;50.224;14.348;2023-03-11T07:43:41;4.60;;;3.20;;
79066;SDS011;68470;50.224;14.348;2023-03-11T07:46:09;6.10;;;3.33;;
79066;SDS011;68470;50.224;14.348;2023-03-11T07:48:43;5.75;;;3.17;;
79066;SDS011;68470;50.224;14.348;2023-03-11T07:51:12;4.57;;;3.05;;
79066;SDS011;68470;50.224;14.348;2023-03-11T07:53:40;6.95;;;3.72;;
79066;SDS011;68470;50.224;14.348;2023-03-11T07:56:07;6.20;;;4.22;;
79066;SDS011;68470;50.224;14.348;2023-03-11T07:58:37;2.88;;;1.67;;
79066;SDS011;68470;50.224;14.348;2023-03-11T08:01:07;4.25;;;2.10;;
79066;SDS011;68470;50.224;14.348;2023-03-11T08:03:37;2.50;;;2.22;;
79066;SDS011;68470;50.224;14.348;2023-03-11T08:08:43;5.10;;;3.28;;
79066;SDS011;68470;50.224;14.348;2023-03-11T08:11:09;4.15;;;3.42;;
79066;SDS011;68470;50.224;14.348;2023-03-11T08:13:43;4.47;;;3.55;;
79066;SDS011;68470;50.224;14.348;2023-03-11T08:16:10;3.08;;;1.70;;
79066;SDS011;68470;50.224;14.348;2023-03-11T08:18:38;4.35;;;3.75;;
79066;SDS011;68470;50.224;14.348;2023-03-11T08:21:05;5.53;;;3.47;;
79066;SDS011;68470;50.224;14.348;2023-03-11T08:23:31;2.28;;;2.08;;
79066;SDS011;68470;50.224;14.348;2023-03-11T08:25:57;3.95;;;2.92;;
79066;SDS011;68470;50.224;14.348;2023-03-11T08:28:27;5.25;;;2.78;;
79066;SDS011;68470;50.224;14.348;2023-03-11T08:30:52;4.80;;;2.90;;
79066;SDS011;68470;50.224;14.348;2023-03-11T08:33:18;4.00;;;3.08;;
79066;SDS011;68470;50.224;14.348;2023-03-11T08:35:47;6.72;;;3.95;;
79066;SDS011;68470;50.224;14.348;2023-03-11T08:38:13;5.22;;;3.92;;
79066;SDS011;68470;50.224;14.348;2023-03-11T08:40:39;4.40;;;3.20;;
79066;SDS011;68470;50.224;14.348;2023-03-11T08:43:05;2.25;;;2.00;;
79066;SDS011;68470;50.224;14.348;2023-03-11T08:45:31;3.40;;;2.47;;
79066;SDS011;68470;50.224;14.348;2023-03-11T08:47:58;2.85;;;1.77;;
79066;SDS011;68470;50.224;14.348;2023-03-11T08:50:24;5.80;;;2.67;;
79066;SDS011;68470;50.224;14.348;2023-03-11T08:52:50;2.40;;;2.13;;
79066;SDS011;68470;50.224;14.348;2023-03-11T08:55:16;3.55;;;2.72;;
79066;SDS011;68470;50.224;14.348;2023-03-11T08:57:49;4.90;;;2.42;;
79066;SDS011;68470;50.224;14.348;2023-03-11T09:00:16;4.45;;;2.80;;
79066;SDS011;68470;50.224;14.348;2023-03-11T09:02:42;2.35;;;1.77;;
79066;SDS011;68470;50.224;14.348;2023-03-11T09:05:08;3.10;;;2.03;;
79066;SDS011;68470;50.224;14.348;2023-03-11T09:07:34;2.78;;;1.98;;
79066;SDS011;68470;50.224;14.348;2023-03-11T09:10:00;2.33;;;1.27;;
79066;SDS011;68470;50.224;14.348;2023-03-11T09:12:27;2.42;;;2.03;;
79066;SDS011;68470;50.224;14.348;2023-03-11T09:14:52;3.22;;;1.92;;
79066;SDS011;68470;50.224;14.348;2023-03-11T09:17:20;3.53;;;2.05;;
79066;SDS011;68470;50.224;14.348;2023-03-11T09:19:46;3.13;;;1.77;;
79066;SDS011;68470;50.224;14.348;2023-03-11T09:22:12;3.95;;;2.65;;
79066;SDS011;68470;50.224;14.348;2023-03-11T09:24:38;3.42;;;1.95;;
79066;SDS011;68470;50.224;14.348;2023-03-11T09:27:04;3.28;;;2.45;;
79066;SDS011;68470;50.224;14.348;2023-03-11T09:29:30;2.88;;;2.08;;
79066;SDS011;68470;50.224;14.348;2023-03-11T09:31:56;3.10;;;2.03;;
79066;SDS011;68470;50.224;14.348;2023-03-11T09:34:23;2.92;;;1.92;;
79066;SDS011;68470;50.224;14.348;2023-03-11T09:36:49;3.90;;;2.50;;
79066;SDS011;68470;50.224;14.348;2023-03-11T09:39:14;2.63;;;1.63;;
79066;SDS011;68470;50.224;14.348;2023-03-11T09:41:46;3.65;;;2.22;;
79066;SDS011;68470;50.224;14.348;2023-03-11T09:44:21;6.38;;;2.35;;
79066;SDS011;68470;50.224;14.348;2023-03-11T09:46:58;4.55;;;1.77;;
79066;SDS011;68470;50.224;14.348;2023-03-11T09:52:51;4.53;;;3.38;;
79066;SDS011;68470;50.224;14.348;2023-03-11T09:55:23;1.63;;;1.27;;
79066;SDS011;68470;50.224;14.348;2023-03-11T09:57:50;1.98;;;1.17;;
79066;SDS011;68470;50.224;14.348;2023-03-11T10:00:18;3.90;;;2.10;;
79066;SDS011;68470;50.224;14.348;2023-03-11T10:02:45;2.17;;;1.40;;
79066;SDS011;68470;50.224;14.348;2023-03-11T10:05:17;3.35;;;2.08;;
79066;SDS011;68470;50.224;14.348;2023-03-11T10:07:50;4.22;;;2.70;;
79066;SDS011;68470;50.224;14.348;2023-03-11T10:10:22;4.40;;;3.13;;
79066;SDS011;68470;50.224;14.348;2023-03-11T10:12:58;3.30;;;2.30;;
79066;SDS011;68470;50.224;14.348;2023-03-11T10:18:35;3.00;;;2.47;;
79066;SDS011;68470;50.224;14.348;2023-03-11T10:21:29;4.57;;;3.05;;
79066;SDS011;68470;50.224;14.348;2023-03-11T10:24:10;3.92;;;2.13;;
79066;SDS011;68470;50.224;14.348;2023-03-11T10:26:58;3.40;;;2.30;;
79066;SDS011;68470;50.224;14.348;2023-03-11T10:29:38;3.80;;;2.78;;
79066;SDS011;68470;50.224;14.348;2023-03-11T10:32:14;4.55;;;2.38;;
79066;SDS011;68470;50.224;14.348;2023-03-11T10:34:51;5.43;;;1.80;;
79066;SDS011;68470;50.224;14.348;2023-03-11T10:37:24;4.32;;;2.42;;
79066;SDS011;68470;50.224;14.348;2023-03-11T10:39:54;4.88;;;3.03;;
79066;SDS011;68470;50.224;14.348;2023-03-11T10:42:30;5.25;;;4.10;;
79066;SDS011;68470;50.224;14.348;2023-03-11T10:44:58;3.72;;;2.78;;
79066;SDS011;68470;50.224;14.348;2023-03-11T10:47:25;3.47;;;2.42;;
79066;SDS011;68470;50.224;14.348;2023-03-11T10:49:51;3.58;;;2.50;;
79066;SDS011;68470;50.224;14.348;2023-03-11T10:52:17;4.95;;;3.67;;
79066;SDS011;68470;50.224;14.348;2023-03-11T10:54:45;7.68;;;3.10;;
79066;SDS011;68470;50.224;14.348;2023-03-11T10:59:58;5.88;;;3.15;;
79066;SDS011;68470;50.224;14.348;2023-03-11T11:02:29;5.03;;;3.15;;
79066;SDS011;68470;50.224;14.348;2023-03-11T11:05:06;5.18;;;2.67;;
79066;SDS011;68470;50.224;14.348;2023-03-11T11:07:42;4.05;;;3.17;;
79066;SDS011;68470;50.224;14.348;2023-03-11T11:10:21;3.42;;;2.10;;
79066;SDS011;68470;50.224;14.348;2023-03-11T11:13:09;4.10;;;3.00;;
79066;SDS011;68470;50.224;14.348;2023-03-11T11:15:59;3.97;;;3.35;;
79066;SDS011;68470;50.224;14.348;2023-03-11T11:18:30;4.15;;;2.95;;
79066;SDS011;68470;50.224;14.348;2023-03-11T11:21:00;3.40;;;2.50;;
79066;SDS011;68470;50.224;14.348;2023-03-11T11:26:00;5.93;;;3.08;;
79066;SDS011;68470;50.224;14.348;2023-03-11T11:28:29;4.72;;;3.78;;
79066;SDS011;68470;50.224;14.348;2023-03-11T11:31:01;3.95;;;2.45;;
79066;SDS011;68470;50.224;14.348;2023-03-11T11:33:32;7.30;;;3.33;;
79066;SDS011;68470;50.224;14.348;2023-03-11T11:36:03;4.65;;;3.47;;
79066;SDS011;68470;50.224;14.348;2023-03-11T11:38:36;4.40;;;3.10;;
79066;SDS011;68470;50.224;14.348;2023-03-11T11:41:03;4.57;;;3.25;;
79066;SDS011;68470;50.224;14.348;2023-03-11T11:48:57;5.95;;;3.70;;
79066;SDS011;68470;50.224;14.348;2023-03-11T11:51:32;4.30;;;3.05;;
79066;SDS011;68470;50.224;14.348;2023-03-11T11:59:04;5.25;;;3.30;;
79066;SDS011;68470;50.224;14.348;2023-03-11T12:04:54;3.97;;;2.47;;
79066;SDS011;68470;50.224;14.348;2023-03-11T12:10:33;3.80;;;2.20;;
79066;SDS011;68470;50.224;14.348;2023-03-11T12:13:15;3.88;;;2.42;;
79066;SDS011;68470;50.224;14.348;2023-03-11T12:18:32;5.90;;;3.33;;
79066;SDS011;68470;50.224;14.348;2023-03-11T12:21:12;5.22;;;2.80;;
79066;SDS011;68470;50.224;14.348;2023-03-11T12:29:06;5.47;;;2.90;;
79066;SDS011;68470;50.224;14.348;2023-03-11T12:31:39;5.57;;;4.13;;
79066;SDS011;68470;50.224;14.348;2023-03-11T12:34:09;6.03;;;3.00;;
79066;SDS011;68470;50.224;14.348;2023-03-11T12:36:38;4.50;;;3.08;;
79066;SDS011;68470;50.224;14.348;2023-03-11T12:44:38;7.25;;;5.30;;
79066;SDS011;68470;50.224;14.348;2023-03-11T12:49:37;3.45;;;2.30;;
79066;SDS011;68470;50.224;14.348;2023-03-11T12:54:38;5.68;;;3.55;;
79066;SDS011;68470;50.224;14.348;2023-03-11T13:08:34;9.68;;;4.93;;
79066;SDS011;68470;50.224;14.348;2023-03-11T13:11:06;8.43;;;4.70;;
79066;SDS011;68470;50.224;14.348;2023-03-11T13:16:42;3.55;;;2.35;;
79066;SDS011;68470;50.224;14.348;2023-03-11T13:21:53;10.05;;;5.15;;
79066;SDS011;68470;50.224;14.348;2023-03-11T13:37:52;9.35;;;4.25;;
79066;SDS011;68470;50.224;14.348;2023-03-11T13:40:40;10.02;;;4.63;;
79066;SDS011;68470;50.224;14.348;2023-03-11T13:43:21;7.05;;;4.78;;
79066;SDS011;68470;50.224;14.348;2023-03-11T13:51:06;8.10;;;4.60;;
79066;SDS011;68470;50.224;14.348;2023-03-11T13:53:53;6.75;;;4.20;;
79066;SDS011;68470;50.224;14.348;2023-03-11T13:56:27;5.55;;;3.70;;
79066;SDS011;68470;50.224;14.348;2023-03-11T14:01:52;4.75;;;3.70;;
79066;SDS011;68470;50.224;14.348;2023-03-11T14:04:25;5.82;;;3.90;;
79066;SDS011;68470;50.224;14.348;2023-03-11T14:06:53;8.68;;;5.18;;
79066;SDS011;68470;50.224;14.348;2023-03-11T14:09:20;6.07;;;3.60;;
79066;SDS011;68470;50.224;14.348;2023-03-11T14:11:48;7.20;;;4.82;;
79066;SDS011;68470;50.224;14.348;2023-03-11T14:14:26;5.28;;;3.15;;
79066;SDS011;68470;50.224;14.348;2023-03-11T14:16:59;5.03;;;3.60;;
79066;SDS011;68470;50.224;14.348;2023-03-11T14:19:28;6.75;;;4.90;;
79066;SDS011;68470;50.224;14.348;2023-03-11T14:21:54;8.30;;;4.95;;
79066;SDS011;68470;50.224;14.348;2023-03-11T14:24:30;5.35;;;3.15;;
79066;SDS011;68470;50.224;14.348;2023-03-11T14:26:57;5.97;;;4.28;;
79066;SDS011;68470;50.224;14.348;2023-03-11T14:29:31;4.63;;;3.10;;
79066;SDS011;68470;50.224;14.348;2023-03-11T14:31:59;5.78;;;4.00;;
79066;SDS011;68470;50.224;14.348;2023-03-11T14:34:27;5.00;;;3.60;;
79066;SDS011;68470;50.224;14.348;2023-03-11T14:36:55;5.50;;;4.00;;
79066;SDS011;68470;50.224;14.348;2023-03-11T14:39:27;6.20;;;3.55;;
79066;SDS011;68470;50.224;14.348;2023-03-11T14:41:56;5.63;;;4.30;;
79066;SDS011;68470;50.224;14.348;2023-03-11T14:44:27;4.97;;;2.78;;
79066;SDS011;68470;50.224;14.348;2023-03-11T14:46:58;5.80;;;3.75;;
79066;SDS011;68470;50.224;14.348;2023-03-11T14:49:30;5.78;;;4.00;;
79066;SDS011;68470;50.224;14.348;2023-03-11T14:51:57;4.88;;;3.35;;
79066;SDS011;68470;50.224;14.348;2023-03-11T14:54:30;4.53;;;2.95;;
79066;SDS011;68470;50.224;14.348;2023-03-11T14:57:02;5.43;;;3.60;;
79066;SDS011;68470;50.224;14.348;2023-03-11T14:59:36;4.75;;;4.10;;
79066;SDS011;68470;50.224;14.348;2023-03-11T15:03:04;3.92;;;2.63;;
79066;SDS011;68470;50.224;14.348;2023-03-11T15:05:10;7.25;;;3.45;;
79066;SDS011;68470;50.224;14.348;2023-03-11T15:07:46;6.07;;;3.58;;
79066;SDS011;68470;50.224;14.348;2023-03-11T15:10:14;5.57;;;3.60;;
79066;SDS011;68470;50.224;14.348;2023-03-11T15:12:42;5.15;;;3.10;;
79066;SDS011;68470;50.224;14.348;2023-03-11T15:15:20;6.70;;;4.05;;
79066;SDS011;68470;50.224;14.348;2023-03-11T15:17:51;6.90;;;4.35;;
79066;SDS011;68470;50.224;14.348;2023-03-11T15:20:22;4.78;;;3.60;;
79066;SDS011;68470;50.224;14.348;2023-03-11T15:22:53;6.90;;;2.90;;
79066;SDS011;68470;50.224;14.348;2023-03-11T15:25:25;6.47;;;4.53;;
79066;SDS011;68470;50.224;14.348;2023-03-11T15:27:52;5.65;;;4.10;;
79066;SDS011;68470;50.224;14.348;2023-03-11T15:32:50;4.57;;;2.97;;
79066;SDS011;68470;50.224;14.348;2023-03-11T15:37:48;4.25;;;2.58;;
79066;SDS011;68470;50.224;14.348;2023-03-11T15:43:04;4.47;;;3.25;;
79066;SDS011;68470;50.224;14.348;2023-03-11T15:45:37;4.57;;;4.03;;
79066;SDS011;68470;50.224;14.348;2023-03-11T15:48:03;5.75;;;4.05;;
79066;SDS011;68470;50.224;14.348;2023-03-11T15:50:30;3.70;;;2.83;;
79066;SDS011;68470;50.224;14.348;2023-03-11T15:52:56;8.18;;;2.60;;
79066;SDS011;68470;50.224;14.348;2023-03-11T15:55:24;5.82;;;3.15;;
79066;SDS011;68470;50.224;14.348;2023-03-11T15:57:52;6.25;;;3.03;;
79066;SDS011;68470;50.224;14.348;2023-03-11T16:00:25;6.18;;;2.47;;
79066;SDS011;68470;50.224;14.348;2023-03-11T16:02:51;5.32;;;2.58;;
79066;SDS011;68470;50.224;14.348;2023-03-11T16:05:19;5.53;;;4.43;;
79066;SDS011;68470;50.224;14.348;2023-03-11T16:07:46;7.40;;;3.30;;
79066;SDS011;68470;50.224;14.348;2023-03-11T16:10:13;4.32;;;3.35;;
79066;SDS011;68470;50.224;14.348;2023-03-11T16:12:40;4.57;;;2.95;;
79066;SDS011;68470;50.224;14.348;2023-03-11T16:15:23;4.40;;;2.88;;
79066;SDS011;68470;50.224;14.348;2023-03-11T16:17:56;4.03;;;2.60;;
79066;SDS011;68470;50.224;14.348;2023-03-11T16:20:24;4.70;;;3.25;;
79066;SDS011;68470;50.224;14.348;2023-03-11T16:22:52;4.68;;;3.55;;
79066;SDS011;68470;50.224;14.348;2023-03-11T16:27:50;5.80;;;2.70;;
79066;SDS011;68470;50.224;14.348;2023-03-11T16:30:17;7.57;;;2.75;;
79066;SDS011;68470;50.224;14.348;2023-03-11T16:32:43;3.85;;;3.33;;
79066;SDS011;68470;50.224;14.348;2023-03-11T16:35:09;4.28;;;2.67;;